Time;durP1;ratioP1;P1;durP2;ratioP2;P2;SDS_P1;SDS_P2;PMS_P1;PMS_P2;Temp;Humidity;BMP_temperature;BMP_pressure;BME280_temperature;BME280_humidity;BME280_pressure;Samples;Min_cycle;Max_cycle;Signal;HPM_P1;HPM_P2
2023/06/07 00:02:13;;;;;;;12.13;3.88;;;19.00;75.40;;;;;;5126573;27;47489;-72
2023/06/07 00:04:40;;;;;;;9.60;3.90;;;19.00;75.60;;;;;;5118370;27;45335;-71
2023/06/07 00:07:10;;;;;;;11.85;3.72;;;19.00;75.60;;;;;;5125264;27;45460;-71
2023/06/07 00:09:37;;;;;;;10.70;3.90;;;18.90;76.00;;;;;;5118167;27;45464;-72
2023/06/07 00:12:06;;;;;;;8.32;3.90;;;18.90;75.80;;;;;;5116339;27;45445;-71
2023/06/07 00:14:33;;;;;;;9.50;4.00;;;19.00;75.90;;;;;;5123945;27;45503;-72
2023/06/07 00:17:00;;;;;;;9.43;4.03;;;19.00;75.60;;;;;;5124669;27;45394;-72
2023/06/07 00:19:27;;;;;;;7.35;3.53;;;19.00;75.70;;;;;;5122683;27;45423;-71
2023/06/07 00:21:54;;;;;;;14.07;4.25;;;19.10;75.60;;;;;;5125383;27;46443;-72
2023/06/07 00:24:22;;;;;;;12.20;4.20;;;19.10;75.30;;;;;;5125649;27;45466;-72
2023/06/07 00:26:49;;;;;;;9.43;4.15;;;19.10;75.20;;;;;;5122901;27;45430;-72
2023/06/07 00:29:16;;;;;;;7.32;4.05;;;19.10;75.20;;;;;;5117056;27;45569;-72
2023/06/07 00:31:43;;;;;;;6.13;3.70;;;19.10;76.40;;;;;;5123910;27;45464;-71
2023/06/07 00:34:10;;;;;;;9.80;3.72;;;19.10;75.10;;;;;;5118606;27;46099;-71
2023/06/07 00:36:37;;;;;;;9.85;3.78;;;19.10;75.20;;;;;;5117037;27;45465;-71
2023/06/07 00:39:04;;;;;;;8.40;3.75;;;19.10;75.30;;;;;;5120333;27;45307;-72
2023/06/07 00:41:32;;;;;;;7.03;3.63;;;19.10;75.40;;;;;;5124340;27;46611;-71
2023/06/07 00:44:02;;;;;;;10.32;3.90;;;19.10;75.90;;;;;;5116041;27;45314;-71
2023/06/07 00:46:30;;;;;;;10.88;4.13;;;19.10;75.90;;;;;;5117755;27;45517;-72
2023/06/07 00:48:58;;;;;;;13.57;4.60;;;19.10;76.60;;;;;;5114605;27;45474;-72
2023/06/07 00:51:27;;;;;;;6.50;3.92;;;18.90;77.30;;;;;;5121389;27;47113;-72
2023/06/07 00:53:54;;;;;;;8.80;4.13;;;18.80;78.00;;;;;;5121703;27;45786;-71
2023/06/07 00:56:21;;;;;;;9.80;4.10;;;18.70;79.00;;;;;;5124996;27;45422;-72
2023/06/07 00:58:49;;;;;;;10.77;3.90;;;18.60;79.70;;;;;;5124521;27;45341;-72
2023/06/07 01:01:17;;;;;;;11.88;4.95;;;18.50;79.80;;;;;;5116869;27;47867;-71
2023/06/07 01:03:45;;;;;;;11.85;4.45;;;18.50;79.60;;;;;;5124216;27;45491;-71
2023/06/07 01:06:13;;;;;;;8.63;3.90;;;18.50;79.50;;;;;;5118652;27;45397;-71
2023/06/07 01:08:41;;;;;;;9.45;3.88;;;18.50;79.30;;;;;;5123159;27;45363;-72
2023/06/07 01:11:09;;;;;;;14.95;5.10;;;18.50;79.20;;;;;;5124978;27;47948;-72
2023/06/07 01:13:38;;;;;;;15.55;4.45;;;18.50;79.20;;;;;;5118595;27;45429;-72
2023/06/07 01:16:07;;;;;;;9.88;3.97;;;18.40;78.90;;;;;;5124988;27;45384;-71
2023/06/07 01:18:34;;;;;;;8.77;4.53;;;18.40;79.00;;;;;;5116331;27;45468;-71
2023/06/07 01:21:03;;;;;;;13.00;4.50;;;18.30;79.10;;;;;;5124199;27;46290;-72
2023/06/07 01:23:32;;;;;;;10.20;4.07;;;18.30;79.20;;;;;;5118548;27;45423;-72
2023/06/07 01:26:00;;;;;;;9.98;4.22;;;18.20;79.60;;;;;;5110936;27;45451;-72
2023/06/07 01:28:29;;;;;;;8.77;3.90;;;18.10;81.30;;;;;;5116514;27;45378;-71
2023/06/07 01:30:57;;;;;;;8.85;3.88;;;18.10;80.30;;;;;;5124274;27;45385;-72
2023/06/07 01:33:25;;;;;;;6.72;4.10;;;18.10;80.80;;;;;;5124984;27;45386;-72
2023/06/07 01:35:53;;;;;;;11.30;4.07;;;18.00;81.50;;;;;;5120009;27;45368;-72
2023/06/07 01:38:22;;;;;;;17.25;4.50;;;17.90;82.20;;;;;;5123827;27;45364;-72
2023/06/07 01:40:52;;;;;;;10.80;4.50;;;17.90;82.60;;;;;;5123502;27;47109;-72
2023/06/07 01:43:21;;;;;;;10.02;4.53;;;17.90;82.70;;;;;;5123553;27;45294;-72
2023/06/07 01:45:49;;;;;;;9.25;4.82;;;17.90;83.00;;;;;;5124092;27;45396;-71
2023/06/07 01:48:16;;;;;;;6.07;3.95;;;17.80;83.60;;;;;;5118787;27;45403;-72
2023/06/07 01:50:43;;;;;;;8.35;3.70;;;17.70;84.20;;;;;;5120740;27;46414;-72
2023/06/07 01:53:10;;;;;;;13.05;4.45;;;17.70;84.60;;;;;;5112536;27;45312;-73
2023/06/07 01:55:37;;;;;;;8.65;4.50;;;17.70;84.50;;;;;;5111539;27;45517;-72
2023/06/07 01:58:14;;;;;;;12.68;4.22;;;17.70;84.60;;;;;;5108529;27;45427;-72
2023/06/07 02:00:49;;;;;;;12.23;4.10;;;17.70;84.50;;;;;;5113156;27;48383;-71
2023/06/07 02:03:20;;;;;;;11.60;4.35;;;17.80;84.50;;;;;;5118721;27;45327;-72
2023/06/07 02:05:51;;;;;;;11.15;4.35;;;17.80;84.70;;;;;;5117683;27;45358;-72
2023/06/07 02:08:29;;;;;;;10.00;4.10;;;17.70;84.50;;;;;;5118770;27;45427;-71
2023/06/07 02:10:57;;;;;;;10.88;4.32;;;17.80;84.50;;;;;;5121952;27;45310;-72
2023/06/07 02:13:27;;;;;;;10.68;4.25;;;17.80;84.60;;;;;;5120549;27;45694;-71
2023/06/07 02:15:54;;;;;;;12.48;4.82;;;17.80;84.60;;;;;;5115053;27;45623;-72
2023/06/07 02:18:21;;;;;;;8.93;4.68;;;17.80;85.00;;;;;;5124006;27;45577;-71
2023/06/07 02:20:48;;;;;;;11.85;4.85;;;17.70;85.70;;;;;;5123889;27;46388;-71
2023/06/07 02:23:15;;;;;;;14.85;4.68;;;17.70;85.90;;;;;;5123719;27;46409;-72
2023/06/07 02:25:42;;;;;;;14.38;4.85;;;17.80;85.90;;;;;;5123127;27;45449;-71
2023/06/07 02:28:09;;;;;;;10.77;4.55;;;17.70;86.80;;;;;;5124000;27;45324;-71
2023/06/07 02:30:37;;;;;;;11.23;5.40;;;17.70;86.80;;;;;;5123638;27;46999;-72
2023/06/07 02:33:05;;;;;;;14.85;4.95;;;17.70;87.30;;;;;;5123580;27;45921;-72
2023/06/07 02:35:32;;;;;;;10.48;5.10;;;17.70;87.50;;;;;;5123672;27;45459;-71
2023/06/07 02:37:58;;;;;;;13.70;5.60;;;17.60;87.60;;;;;;5118877;27;45532;-71
2023/06/07 02:40:25;;;;;;;13.07;5.13;;;17.70;87.40;;;;;;5118379;27;47368;-71
2023/06/07 02:42:52;;;;;;;17.13;4.80;;;17.70;87.50;;;;;;5122415;27;45406;-73
2023/06/07 02:45:19;;;;;;;13.00;4.95;;;17.70;87.50;;;;;;5122774;27;45390;-71
2023/06/07 02:47:47;;;;;;;17.05;4.82;;;17.70;87.70;;;;;;5123113;27;45280;-72
2023/06/07 02:50:14;;;;;;;11.80;5.03;;;17.70;87.80;;;;;;5120633;27;46366;-71
2023/06/07 02:52:41;;;;;;;11.10;5.40;;;17.70;87.60;;;;;;5113500;27;45388;-72
2023/06/07 02:55:08;;;;;;;18.38;5.78;;;17.70;88.10;;;;;;5116504;27;45428;-71
2023/06/07 02:57:35;;;;;;;14.27;5.05;;;17.70;88.50;;;;;;5118487;27;45503;-71
2023/06/07 03:00:02;;;;;;;13.45;5.13;;;17.70;88.80;;;;;;5121927;27;45319;-71
2023/06/07 03:02:29;;;;;;;19.15;5.25;;;17.60;89.20;;;;;;5122278;27;45331;-72
2023/06/07 03:04:57;;;;;;;11.93;5.18;;;17.80;89.10;;;;;;5120669;27;45456;-71
2023/06/07 03:07:24;;;;;;;14.20;5.63;;;17.80;89.30;;;;;;5117919;27;45478;-72
2023/06/07 03:09:51;;;;;;;11.95;5.55;;;17.70;89.60;;;;;;5121995;27;46657;-71
2023/06/07 03:12:18;;;;;;;11.07;5.20;;;17.80;89.70;;;;;;5119486;27;45526;-73
2023/06/07 03:14:45;;;;;;;11.57;5.47;;;17.70;90.10;;;;;;5119942;27;45540;-72
2023/06/07 03:17:12;;;;;;;16.73;5.97;;;17.50;90.50;;;;;;5120919;27;45463;-71
2023/06/07 03:19:38;;;;;;;17.27;6.15;;;17.50;91.30;;;;;;5122613;27;48400;-71
2023/06/07 03:22:07;;;;;;;12.32;5.28;;;17.40;91.10;;;;;;5123371;27;45449;-72
2023/06/07 03:24:34;;;;;;;16.27;6.10;;;17.40;91.00;;;;;;5121147;27;45478;-71
2023/06/07 03:27:01;;;;;;;11.50;5.13;;;17.40;91.10;;;;;;5116096;27;45275;-72
2023/06/07 03:29:28;;;;;;;11.15;5.85;;;17.80;90.10;;;;;;5126205;27;47520;-72
2023/06/07 03:31:55;;;;;;;9.13;5.05;;;17.90;89.00;;;;;;5126079;27;45324;-72
2023/06/07 03:34:22;;;;;;;12.57;5.80;;;18.10;88.20;;;;;;5122037;27;46141;-72
2023/06/07 03:36:49;;;;;;;12.30;4.72;;;18.10;87.90;;;;;;5123307;27;45628;-71
2023/06/07 03:39:17;;;;;;;12.70;5.10;;;18.10;87.40;;;;;;5111857;27;47219;-72
2023/06/07 03:41:44;;;;;;;9.18;5.05;;;18.30;86.60;;;;;;5114117;27;45930;-72
2023/06/07 03:44:12;;;;;;;17.10;6.65;;;18.20;87.00;;;;;;5124850;27;45584;-71
2023/06/07 03:46:40;;;;;;;15.48;5.35;;;18.20;86.90;;;;;;5125156;27;45470;-72
2023/06/07 03:49:06;;;;;;;10.32;4.97;;;18.20;86.80;;;;;;5121336;27;47698;-72
2023/06/07 03:51:33;;;;;;;12.57;5.68;;;18.20;86.70;;;;;;5123047;27;45411;-71
2023/06/07 03:54:00;;;;;;;10.95;5.70;;;18.20;86.80;;;;;;5117130;27;45340;-72
2023/06/07 03:56:29;;;;;;;14.52;5.50;;;18.20;86.90;;;;;;5126932;27;45243;-72
2023/06/07 03:58:57;;;;;;;15.57;5.55;;;18.10;86.80;;;;;;5116733;27;46608;-72
2023/06/07 04:01:25;;;;;;;10.93;5.60;;;18.10;86.70;;;;;;5123696;27;45401;-71
2023/06/07 04:03:52;;;;;;;10.20;4.53;;;18.20;86.80;;;;;;5118798;27;45390;-71
2023/06/07 04:06:20;;;;;;;8.57;5.00;;;18.20;86.40;;;;;;5125624;27;45537;-71
2023/06/07 04:08:47;;;;;;;12.52;5.30;;;18.20;86.70;;;;;;5117723;27;45530;-72
2023/06/07 04:11:14;;;;;;;14.35;5.95;;;18.20;86.70;;;;;;5119171;27;45457;-72
2023/06/07 04:13:44;;;;;;;11.13;5.45;;;18.20;86.50;;;;;;5121924;27;45272;-72
2023/06/07 04:16:11;;;;;;;15.20;5.20;;;18.20;86.80;;;;;;5115634;27;45252;-71
2023/06/07 04:18:38;;;;;;;11.73;5.03;;;18.20;86.50;;;;;;5124929;27;48374;-72
2023/06/07 04:21:05;;;;;;;10.70;4.95;;;18.30;86.40;;;;;;5125229;27;45491;-72
2023/06/07 04:23:32;;;;;;;10.93;5.10;;;18.20;86.50;;;;;;5114421;27;45348;-73
2023/06/07 04:26:00;;;;;;;14.65;4.57;;;18.30;86.40;;;;;;5124310;27;45265;-72
2023/06/07 04:28:27;;;;;;;14.10;5.13;;;18.30;86.70;;;;;;5115344;27;48635;-71
2023/06/07 04:30:57;;;;;;;10.30;4.53;;;18.30;86.80;;;;;;5124958;27;45366;-71
2023/06/07 04:33:24;;;;;;;16.27;5.80;;;18.30;87.00;;;;;;5122044;27;45275;-71
2023/06/07 04:35:51;;;;;;;11.63;5.07;;;18.20;87.20;;;;;;5125074;27;45254;-72
2023/06/07 04:38:20;;;;;;;12.73;4.47;;;18.20;87.00;;;;;;5117482;27;47654;-72
2023/06/07 04:40:49;;;;;;;8.70;4.70;;;18.20;86.90;;;;;;5116901;27;45278;-73
2023/06/07 04:43:17;;;;;;;11.43;5.07;;;18.30;86.90;;;;;;5117783;27;45291;-72
2023/06/07 04:45:46;;;;;;;14.18;4.82;;;18.20;87.00;;;;;;5124457;27;45322;-71
2023/06/07 04:48:15;;;;;;;9.35;4.20;;;18.30;86.90;;;;;;5121735;27;47633;-72
2023/06/07 04:50:42;;;;;;;10.93;5.38;;;18.30;85.70;;;;;;5124508;27;45390;-72
2023/06/07 04:53:10;;;;;;;12.85;4.97;;;18.30;84.90;;;;;;5124933;27;45397;-72
2023/06/07 04:55:37;;;;;;;18.65;4.90;;;18.30;85.20;;;;;;5123536;27;45347;-72
2023/06/07 04:58:05;;;;;;;11.60;4.28;;;18.40;84.40;;;;;;5117438;27;47485;-72
2023/06/07 05:00:33;;;;;;;12.32;4.95;;;18.50;83.60;;;;;;5118252;27;45567;-72
2023/06/07 05:03:06;;;;;;;11.18;4.53;;;18.50;84.40;;;;;;5118693;27;45423;-71
2023/06/07 05:05:34;;;;;;;13.40;4.43;;;18.60;84.20;;;;;;5120111;27;45425;-72
2023/06/07 05:08:01;;;;;;;9.68;4.85;;;18.60;84.00;;;;;;5118459;27;45457;-72
2023/06/07 05:10:28;;;;;;;12.00;5.28;;;18.50;85.20;;;;;;5115328;27;45375;-72
2023/06/07 05:12:55;;;;;;;10.68;4.50;;;18.50;85.00;;;;;;5119018;27;45521;-72
2023/06/07 05:15:23;;;;;;;10.40;4.68;;;18.40;85.60;;;;;;5119745;27;45564;-72
2023/06/07 05:17:50;;;;;;;10.93;4.90;;;18.40;85.80;;;;;;5121642;27;45489;-72
2023/06/07 05:20:17;;;;;;;11.80;4.82;;;18.40;86.00;;;;;;5123350;27;45422;-73
2023/06/07 05:22:45;;;;;;;9.20;5.20;;;18.40;85.60;;;;;;5117744;27;45410;-74
2023/06/07 05:25:13;;;;;;;10.63;4.97;;;18.30;86.30;;;;;;5123922;27;45559;-75
2023/06/07 05:27:40;;;;;;;11.02;4.55;;;18.40;86.60;;;;;;5113585;27;46885;-72
2023/06/07 05:30:08;;;;;;;13.68;5.07;;;18.30;86.50;;;;;;5111526;27;45331;-73
2023/06/07 05:32:35;;;;;;;15.90;6.28;;;18.30;86.30;;;;;;5121096;27;45267;-72
2023/06/07 05:35:03;;;;;;;15.98;4.55;;;18.30;86.40;;;;;;5124920;27;45278;-72
2023/06/07 05:37:30;;;;;;;11.75;4.97;;;18.30;86.20;;;;;;5124317;27;46288;-72
2023/06/07 05:39:59;;;;;;;15.52;5.60;;;18.30;86.40;;;;;;5108237;27;46181;-73
2023/06/07 05:42:26;;;;;;;10.00;5.00;;;18.40;86.30;;;;;;5119449;27;45472;-73
2023/06/07 05:44:53;;;;;;;13.70;4.80;;;18.40;86.30;;;;;;5115307;27;45494;-75
2023/06/07 05:47:25;;;;;;;11.85;5.10;;;18.30;86.70;;;;;;5121392;27;47526;-74
2023/06/07 05:49:52;;;;;;;12.80;4.63;;;18.40;87.10;;;;;;5121297;27;45378;-73
2023/06/07 05:52:19;;;;;;;10.15;4.57;;;18.50;85.40;;;;;;5115544;27;45374;-73
2023/06/07 05:54:50;;;;;;;9.27;4.30;;;18.70;84.00;;;;;;5111279;27;45447;-72
2023/06/07 05:57:18;;;;;;;10.63;4.13;;;18.90;81.90;;;;;;5118297;27;47584;-73
2023/06/07 05:59:45;;;;;;;8.13;4.15;;;19.00;80.50;;;;;;5118506;27;45440;-72
2023/06/07 06:02:12;;;;;;;6.38;3.97;;;19.00;81.00;;;;;;5124575;27;45392;-72
2023/06/07 06:04:38;;;;;;;11.02;4.35;;;19.10;79.50;;;;;;5120461;27;45252;-71
2023/06/07 06:07:05;;;;;;;10.43;4.55;;;19.10;80.00;;;;;;5123467;27;46593;-72
2023/06/07 06:09:32;;;;;;;7.90;4.25;;;19.10;79.80;;;;;;5124399;27;45428;-71
2023/06/07 06:11:59;;;;;;;14.10;5.38;;;19.20;79.80;;;;;;5115449;27;45315;-71
2023/06/07 06:14:28;;;;;;;15.77;5.95;;;19.10;80.60;;;;;;5117933;27;45745;-72
2023/06/07 06:16:55;;;;;;;15.43;4.78;;;19.10;81.40;;;;;;5111577;27;47948;-72
2023/06/07 06:19:22;;;;;;;14.70;5.70;;;19.10;83.30;;;;;;5111869;27;45538;-72
2023/06/07 06:21:48;;;;;;;12.52;5.05;;;19.00;84.30;;;;;;5116727;27;45468;-71
2023/06/07 06:24:15;;;;;;;12.30;5.15;;;18.90;84.20;;;;;;5119908;27;45415;-71
2023/06/07 06:26:42;;;;;;;16.70;6.03;;;19.00;84.10;;;;;;5122704;27;46477;-71
2023/06/07 06:29:09;;;;;;;10.32;5.22;;;19.00;84.00;;;;;;5121093;27;45285;-71
2023/06/07 06:31:38;;;;;;;12.82;4.55;;;19.10;83.20;;;;;;5119740;27;45274;-73
2023/06/07 06:34:05;;;;;;;11.52;5.35;;;19.10;83.90;;;;;;5122405;27;45564;-72
2023/06/07 06:36:32;;;;;;;11.60;5.32;;;19.00;85.90;;;;;;5117691;27;45890;-73
2023/06/07 06:38:59;;;;;;;16.42;6.25;;;18.90;88.20;;;;;;5123782;27;45378;-72
2023/06/07 06:41:26;;;;;;;12.32;5.72;;;18.80;87.40;;;;;;5122089;27;45322;-71
2023/06/07 06:43:52;;;;;;;11.18;5.38;;;18.70;87.30;;;;;;5120092;27;45608;-73
2023/06/07 06:46:19;;;;;;;14.75;5.53;;;18.70;86.60;;;;;;5106020;27;47877;-72
2023/06/07 06:48:47;;;;;;;12.65;5.20;;;18.70;86.30;;;;;;5122093;27;45423;-72
2023/06/07 06:51:15;;;;;;;19.63;5.78;;;18.70;86.60;;;;;;5123691;27;45281;-72
2023/06/07 06:53:42;;;;;;;10.77;5.47;;;18.80;85.70;;;;;;5114016;27;45552;-71
2023/06/07 06:56:08;;;;;;;12.35;6.03;;;18.70;85.90;;;;;;5123029;27;46560;-72
2023/06/07 06:58:35;;;;;;;17.17;6.05;;;18.70;85.50;;;;;;5121509;27;45456;-72
2023/06/07 07:01:02;;;;;;;19.80;5.82;;;18.70;85.20;;;;;;5119065;27;45445;-73
2023/06/07 07:03:29;;;;;;;20.60;6.10;;;18.70;85.60;;;;;;5114878;27;45495;-72
2023/06/07 07:05:57;;;;;;;14.35;5.75;;;18.90;85.50;;;;;;5113646;27;46104;-72
2023/06/07 07:08:26;;;;;;;14.70;6.05;;;18.90;85.30;;;;;;5109840;27;45658;-72
2023/06/07 07:10:53;;;;;;;14.32;5.93;;;19.00;84.90;;;;;;5111187;27;45382;-72
2023/06/07 07:13:20;;;;;;;15.02;5.63;;;19.10;84.20;;;;;;5112083;27;45573;-73
2023/06/07 07:15:46;;;;;;;12.07;5.72;;;19.20;83.60;;;;;;5117486;27;47004;-72
2023/06/07 07:18:13;;;;;;;11.75;5.10;;;19.20;82.90;;;;;;5115860;27;45457;-72
2023/06/07 07:20:40;;;;;;;12.60;5.30;;;19.20;82.50;;;;;;5113585;27;45390;-72
2023/06/07 07:23:08;;;;;;;12.05;5.38;;;19.20;82.10;;;;;;5114817;27;45496;-72
2023/06/07 07:25:35;;;;;;;11.35;4.57;;;19.10;82.10;;;;;;5113089;27;47985;-71
2023/06/07 07:28:02;;;;;;;9.48;5.30;;;19.10;81.80;;;;;;5118578;27;45418;-72
2023/06/07 07:30:29;;;;;;;8.70;4.40;;;19.10;81.60;;;;;;5119388;27;45373;-73
2023/06/07 07:32:56;;;;;;;9.18;4.07;;;19.20;81.40;;;;;;5119553;27;45676;-72
2023/06/07 07:35:23;;;;;;;9.95;4.15;;;19.20;81.40;;;;;;5116489;27;48369;-73
2023/06/07 07:37:50;;;;;;;10.50;4.55;;;19.30;82.20;;;;;;5121430;27;45453;-72
2023/06/07 07:40:19;;;;;;;14.82;4.80;;;19.20;83.90;;;;;;5116242;27;45294;-72
2023/06/07 07:42:46;;;;;;;10.27;4.53;;;19.10;86.20;;;;;;5114275;27;45515;-72
2023/06/07 07:45:14;;;;;;;10.13;4.78;;;19.10;86.80;;;;;;5118717;27;45481;-72
2023/06/07 07:47:40;;;;;;;10.52;4.60;;;19.10;87.30;;;;;;5118843;27;45333;-72
2023/06/07 07:50:08;;;;;;;12.73;4.95;;;19.00;86.20;;;;;;5120283;27;45434;-72
2023/06/07 07:52:35;;;;;;;14.38;5.45;;;19.00;86.90;;;;;;5114341;27;45518;-71
2023/06/07 07:55:03;;;;;;;18.25;5.53;;;18.90;87.10;;;;;;5114867;27;48080;-71
2023/06/07 07:57:31;;;;;;;12.18;5.15;;;18.70;89.80;;;;;;5120008;27;45287;-71
2023/06/07 07:59:58;;;;;;;12.75;5.22;;;18.80;86.30;;;;;;5119589;27;45356;-71
2023/06/07 08:02:25;;;;;;;10.65;4.82;;;19.00;84.90;;;;;;5112169;27;45273;-71
2023/06/07 08:04:53;;;;;;;11.90;5.28;;;19.10;86.00;;;;;;5119288;27;46782;-71
2023/06/07 08:07:20;;;;;;;12.90;4.45;;;19.10;84.10;;;;;;5116715;27;45479;-71
2023/06/07 08:09:46;;;;;;;11.43;4.72;;;19.10;83.50;;;;;;5117110;27;45242;-71
2023/06/07 08:12:13;;;;;;;7.50;3.78;;;19.10;83.30;;;;;;5119291;27;45474;-72
2023/06/07 08:14:41;;;;;;;11.75;4.90;;;19.10;83.10;;;;;;5120312;27;45422;-71
2023/06/07 08:17:08;;;;;;;10.98;4.78;;;19.20;82.40;;;;;;5119545;27;45741;-73
2023/06/07 08:19:35;;;;;;;15.35;4.50;;;19.20;82.60;;;;;;5123174;27;45393;-71
2023/06/07 08:22:02;;;;;;;9.73;4.57;;;19.10;82.80;;;;;;5126134;27;45429;-72
2023/06/07 08:24:28;;;;;;;12.15;5.30;;;19.10;82.70;;;;;;5124964;27;46520;-71
2023/06/07 08:26:55;;;;;;;12.52;5.55;;;19.00;82.80;;;;;;5121353;27;45420;-73
2023/06/07 08:29:22;;;;;;;10.90;4.95;;;19.00;83.70;;;;;;5109783;27;45390;-72
2023/06/07 08:31:50;;;;;;;14.63;5.15;;;19.00;84.80;;;;;;5122964;27;45370;-72
2023/06/07 08:34:17;;;;;;;11.90;4.82;;;19.00;83.50;;;;;;5123713;27;47486;-72
2023/06/07 08:36:44;;;;;;;9.00;4.95;;;19.10;83.60;;;;;;5120773;27;46219;-72
2023/06/07 08:39:10;;;;;;;12.60;4.80;;;19.10;83.60;;;;;;5114072;27;45421;-71
2023/06/07 08:41:39;;;;;;;11.98;5.70;;;19.00;83.60;;;;;;5115982;27;45387;-71
2023/06/07 08:44:05;;;;;;;12.32;5.63;;;19.00;83.30;;;;;;5122020;27;46120;-71
2023/06/07 08:46:32;;;;;;;10.57;5.28;;;18.90;83.10;;;;;;5118264;27;45391;-71
2023/06/07 08:49:05;;;;;;;16.10;5.40;;;18.90;82.80;;;;;;5124934;27;45298;-71
2023/06/07 08:51:36;;;;;;;11.60;5.40;;;18.80;83.50;;;;;;5117765;27;45636;-73
2023/06/07 08:54:05;;;;;;;13.93;5.47;;;18.80;83.40;;;;;;5123791;27;46571;-71
2023/06/07 08:56:32;;;;;;;13.48;5.85;;;18.90;83.00;;;;;;5118191;27;45562;-71
2023/06/07 08:59:00;;;;;;;11.27;5.30;;;18.90;83.00;;;;;;5117431;27;45250;-71
2023/06/07 09:01:29;;;;;;;16.80;5.72;;;19.00;83.30;;;;;;5115074;27;45435;-72
2023/06/07 09:03:56;;;;;;;8.95;4.68;;;19.00;82.80;;;;;;5113427;27;46622;-71
2023/06/07 09:06:25;;;;;;;13.32;4.93;;;19.00;83.60;;;;;;5118054;27;45382;-71
2023/06/07 09:08:52;;;;;;;14.50;5.93;;;19.10;83.10;;;;;;5121721;27;45458;-71
2023/06/07 09:11:19;;;;;;;12.48;5.40;;;19.10;83.50;;;;;;5119679;27;45454;-71
2023/06/07 09:13:46;;;;;;;15.02;6.00;;;19.00;83.50;;;;;;5120460;27;45481;-72
2023/06/07 09:16:13;;;;;;;13.25;5.65;;;19.00;83.80;;;;;;5117987;27;45308;-72
2023/06/07 09:18:43;;;;;;;14.45;5.80;;;19.10;84.30;;;;;;5122731;27;45370;-73
2023/06/07 09:21:21;;;;;;;18.42;6.13;;;19.10;84.50;;;;;;5118171;27;45451;-72
2023/06/07 09:23:49;;;;;;;16.17;7.43;;;19.20;87.70;;;;;;5113790;27;48340;-71
2023/06/07 09:26:16;;;;;;;13.88;6.40;;;19.10;88.40;;;;;;5121659;27;45310;-71
2023/06/07 09:28:45;;;;;;;15.25;6.70;;;19.10;90.40;;;;;;5116570;27;45468;-71
2023/06/07 09:31:12;;;;;;;16.08;6.93;;;19.10;89.60;;;;;;5123890;27;45387;-71
2023/06/07 09:33:40;;;;;;;18.50;7.03;;;19.00;89.00;;;;;;5118816;27;46994;-71
2023/06/07 09:36:08;;;;;;;20.45;7.25;;;19.00;89.90;;;;;;5123363;27;45507;-72
2023/06/07 09:38:35;;;;;;;20.15;7.53;;;19.00;90.00;;;;;;5116355;27;45375;-71
2023/06/07 09:41:05;;;;;;;14.50;7.13;;;19.00;88.90;;;;;;5115129;27;45500;-72
2023/06/07 09:43:46;;;;;;;15.75;6.68;;;18.90;89.40;;;;;;5124116;27;47061;-72
2023/06/07 09:46:14;;;;;;;18.48;7.95;;;18.90;89.10;;;;;;5112510;27;45403;-72
2023/06/07 09:48:47;;;;;;;16.10;6.85;;;18.90;88.50;;;;;;5121145;27;45653;-73
2023/06/07 09:51:14;;;;;;;14.10;6.85;;;18.80;89.20;;;;;;5124908;27;45341;-71
2023/06/07 09:53:52;;;;;;;19.50;7.03;;;18.80;88.80;;;;;;5114989;27;45512;-71
2023/06/07 09:56:21;;;;;;;20.88;6.68;;;18.80;88.60;;;;;;5119032;27;45757;-71
2023/06/07 09:58:50;;;;;;;19.88;7.10;;;18.90;88.00;;;;;;5121904;27;45275;-72
2023/06/07 10:01:32;;;;;;;13.50;6.63;;;18.90;90.00;;;;;;5121574;27;45491;-72
2023/06/07 10:04:01;;;;;;;20.48;7.22;;;18.90;90.30;;;;;;5122523;27;46286;-71
2023/06/07 10:06:32;;;;;;;13.73;6.65;;;18.80;90.40;;;;;;5122157;27;45264;-71
2023/06/07 10:09:01;;;;;;;15.50;7.60;;;18.70;90.80;;;;;;5111966;27;45451;-72
2023/06/07 10:11:31;;;;;;;13.60;6.72;;;18.70;90.90;;;;;;5111336;27;45253;-71
2023/06/07 10:13:58;;;;;;;16.20;6.68;;;18.70;90.70;;;;;;5116521;27;46644;-71
2023/06/07 10:16:28;;;;;;;15.50;7.10;;;18.70;90.50;;;;;;5103710;27;45331;-72
2023/06/07 10:18:58;;;;;;;18.73;6.88;;;18.80;90.40;;;;;;5120235;27;45320;-72
2023/06/07 10:21:26;;;;;;;14.20;6.97;;;18.80;90.40;;;;;;5123140;27;45399;-72
2023/06/07 10:23:58;;;;;;;19.33;7.05;;;18.80;90.60;;;;;;5123831;27;47509;-71
2023/06/07 10:26:35;;;;;;;15.85;7.13;;;18.80;90.40;;;;;;5116383;27;45389;-71
2023/06/07 10:29:08;;;;;;;18.85;7.82;;;18.70;90.20;;;;;;5115396;27;45319;-71
2023/06/07 10:31:37;;;;;;;16.25;7.53;;;18.60;90.20;;;;;;5123202;27;45453;-71
2023/06/07 10:34:07;;;;;;;15.75;7.68;;;18.60;90.20;;;;;;5123011;27;45307;-72
2023/06/07 10:36:37;;;;;;;16.92;7.80;;;18.60;90.00;;;;;;5120387;27;45371;-71
2023/06/07 10:39:04;;;;;;;17.58;7.78;;;18.60;90.10;;;;;;5123915;27;45434;-71
2023/06/07 10:41:33;;;;;;;16.60;7.88;;;18.60;90.30;;;;;;5123590;27;45500;-71
2023/06/07 10:44:01;;;;;;;18.50;7.78;;;18.60;90.20;;;;;;5112294;27;47031;-71
2023/06/07 10:46:29;;;;;;;14.88;7.15;;;18.60;90.50;;;;;;5117972;27;45523;-72
2023/06/07 10:48:57;;;;;;;17.13;8.32;;;18.60;90.50;;;;;;5121200;27;45520;-72
2023/06/07 10:52:02;;;;;;;18.00;8.13;;;18.60;91.20;;;;;;5120880;27;45436;-71
2023/06/07 10:54:30;;;;;;;27.10;9.15;;;18.60;91.10;;;;;;5119001;27;46758;-71
2023/06/07 10:56:59;;;;;;;17.63;9.48;;;18.50;91.30;;;;;;5119142;27;45590;-72
2023/06/07 10:59:26;;;;;;;23.10;10.95;;;18.50;91.20;;;;;;5119687;27;45361;-71
2023/06/07 11:01:54;;;;;;;22.40;9.15;;;18.40;91.20;;;;;;5106673;27;45304;-72
2023/06/07 11:04:53;;;;;;;20.85;9.52;;;18.50;91.10;;;;;;5114550;27;48701;-72
2023/06/07 11:07:22;;;;;;;18.52;9.30;;;18.60;90.80;;;;;;5116328;27;45477;-71
2023/06/07 11:09:49;;;;;;;20.98;9.98;;;18.70;90.70;;;;;;5117412;27;45593;-71
2023/06/07 11:12:57;;;;;;;23.67;11.05;;;18.80;90.60;;;;;;5121982;27;45797;-72
2023/06/07 11:15:30;;;;;;;23.50;11.70;;;18.70;91.20;;;;;;5103713;27;48413;-71
2023/06/07 11:17:58;;;;;;;31.60;14.05;;;18.70;91.20;;;;;;5106138;27;45429;-71
2023/06/07 11:20:49;;;;;;;29.60;14.18;;;18.60;91.60;;;;;;5119867;27;45523;-71
2023/06/07 11:23:27;;;;;;;26.00;13.52;;;18.70;91.40;;;;;;5123046;27;45391;-71
2023/06/07 11:25:57;;;;;;;26.83;13.85;;;18.80;91.00;;;;;;5114095;27;47266;-71
2023/06/07 11:28:27;;;;;;;26.05;15.45;;;18.90;91.10;;;;;;5116082;27;45418;-71
2023/06/07 11:30:55;;;;;;;34.55;17.08;;;18.90;91.20;;;;;;5121045;27;45391;-71
2023/06/07 11:33:22;;;;;;;30.50;17.25;;;19.00;91.10;;;;;;5123235;27;45339;-72
2023/06/07 11:35:49;;;;;;;30.85;15.50;;;19.00;90.70;;;;;;5121975;27;46560;-74
2023/06/07 11:38:17;;;;;;;29.05;16.80;;;19.00;90.50;;;;;;5109519;27;45415;-75
2023/06/07 11:40:44;;;;;;;28.67;15.82;;;19.10;90.40;;;;;;5114967;27;45378;-72
2023/06/07 11:43:12;;;;;;;31.90;16.65;;;19.10;90.60;;;;;;5115538;27;45436;-72
2023/06/07 11:45:42;;;;;;;28.23;14.05;;;19.10;90.70;;;;;;5111342;27;46606;-71
2023/06/07 11:48:09;;;;;;;25.73;12.30;;;19.10;90.40;;;;;;5123296;27;45334;-71
2023/06/07 11:50:37;;;;;;;25.88;13.18;;;19.20;90.50;;;;;;5119219;27;45330;-73
2023/06/07 11:53:05;;;;;;;23.35;12.20;;;19.20;90.50;;;;;;5117080;27;45829;-71
2023/06/07 11:55:32;;;;;;;19.45;10.15;;;19.10;90.50;;;;;;5121506;27;46544;-71
2023/06/07 11:58:02;;;;;;;26.98;14.63;;;19.20;90.00;;;;;;5111428;27;45494;-70
2023/06/07 12:00:31;;;;;;;27.80;14.68;;;19.30;90.60;;;;;;5113035;27;45448;-70
2023/06/07 12:03:00;;;;;;;24.73;14.27;;;19.20;91.00;;;;;;5113039;27;45557;-72
2023/06/07 12:05:36;;;;;;;23.55;13.35;;;19.10;91.00;;;;;;5119680;27;48375;-71
2023/06/07 12:08:04;;;;;;;27.10;13.30;;;19.00;91.30;;;;;;5118356;27;45489;-71
2023/06/07 12:10:33;;;;;;;24.63;12.00;;;19.10;91.10;;;;;;5124039;27;45546;-71
2023/06/07 12:13:10;;;;;;;30.10;14.63;;;19.20;90.90;;;;;;5115070;27;45253;-71
2023/06/07 12:15:42;;;;;;;25.83;12.57;;;19.30;91.40;;;;;;5120992;27;45414;-71
2023/06/07 12:18:13;;;;;;;30.48;12.65;;;19.30;90.90;;;;;;5123979;27;45489;-71
2023/06/07 12:20:41;;;;;;;22.77;12.88;;;19.40;90.50;;;;;;5125483;27;45448;-71
2023/06/07 12:23:08;;;;;;;25.80;12.85;;;19.40;90.90;;;;;;5125812;27;46188;-72
2023/06/07 12:25:35;;;;;;;26.95;12.23;;;19.50;90.40;;;;;;5125892;27;46635;-71
2023/06/07 12:28:05;;;;;;;24.50;12.38;;;19.50;90.90;;;;;;5125942;27;46604;-71
2023/06/07 12:30:37;;;;;;;20.83;10.93;;;19.60;91.00;;;;;;5130788;27;45243;-72
2023/06/07 12:33:04;;;;;;;21.27;11.13;;;19.60;90.20;;;;;;5124318;27;45331;-72
2023/06/07 12:35:39;;;;;;;18.02;8.98;;;19.70;90.20;;;;;;5124210;27;48133;-72
2023/06/07 12:38:06;;;;;;;20.15;11.48;;;19.70;90.00;;;;;;5124247;27;46414;-71
2023/06/07 12:40:33;;;;;;;20.17;10.70;;;19.60;90.10;;;;;;5124798;27;45458;-71
2023/06/07 12:43:00;;;;;;;23.30;11.23;;;19.60;90.00;;;;;;5123769;27;45684;-72
2023/06/07 12:45:26;;;;;;;17.20;9.50;;;19.50;90.10;;;;;;5120709;27;47590;-71